• Join FlightAware (Why Join?)
  • Login
  • US Flag 
06:29AM EDT


 

Airport Tracker/Info


-or-


 

Live Flight TrackerFlight Track Log ✈ TMC452 ✈ 19-Jul-2013 ✈ KBWI - KTEB

Flight Track Log - Related Links

Times and Time Zones

All times are in EDT time to prevent confusion due to time zone crossing. See the TMC452 flight status page for this flight to view local times or setup timezone preferences in your user account.

Time Position Orientation Groundspeed Altitude Reporting Facility
EDT Latitude Longitude Course Direction KTS MPH feet Rate Location/Type
12:34PM 39.1433 -76.7450 52° Northeast 141 162 3,900  Level Washington Center
12:35PM 39.1192 -76.6669 112° Southeast 99 114 6,300 2,580 Climbing Washington Center
12:36PM 39.1283 -76.5683 83° East 163 188 9,100 2,160 Climbing Washington Center
12:37PM 39.1353 -76.4614 85° East 239 275 10,800 1,860 Climbing Washington Center
12:38PM 39.1422 -76.3517 85° East 272 313 12,900 1,920 Climbing Washington Center
12:39PM 39.1695 -76.1972 38° Northeast  Level FlightAware Approximate
12:39PM 39.1492 -76.2339 86° East 309 356 14,600  Level Washington Center
12:40PM 39.2226 -76.1291 52° Northeast  Level FlightAware Approximate
12:40PM 39.2269 -76.1408 43° Northeast 315 362 14,900  Level Washington Center
12:41PM 39.3000 -76.0636 39° Northeast 320 368 14,900  Level Washington Center
12:44PM 39.4833 -75.8833 37° Northeast 352 405 15,000  Climbing Philadelphia TRACON
12:45PM 39.5500 -75.8333 30° Northeast 355 409 14,900  Descending Philadelphia TRACON
12:46PM 39.6500 -75.7333 38° Northeast 355 409 15,000 -120 Climbing Philadelphia TRACON
12:47PM 39.7333 -75.6667 32° Northeast 342 394 14,700 -1,080 Descending Philadelphia TRACON
12:48PM 39.8000 -75.6000 38° Northeast 371 427 13,000 -900 Descending Philadelphia TRACON
12:49PM 39.8833 -75.5167 37° Northeast 345 397 13,000  Level Philadelphia TRACON
12:50PM 39.9667 -75.4500 32° Northeast 323 372 13,000  Level Philadelphia TRACON
12:51PM 40.0333 -75.3833 37° Northeast 319 367 13,000  Level Philadelphia TRACON
12:52PM 40.1167 -75.3167 31° Northeast 313 360 13,000 -300 Level Philadelphia TRACON
12:53PM 40.1833 -75.2500 37° Northeast 324 373 12,400 -1,260 Descending Philadelphia TRACON
12:55PM 40.3333 -75.1000 37° Northeast 301 346 9,200 -1,620 Descending New York TRACON
12:56PM 40.3833 -75.0167 52° Northeast 306 352 7,500 -1,680 Descending New York TRACON
12:57PM 40.4333 -74.9500 45° Northeast 295 339 5,900 -1,680 Descending New York TRACON
12:58PM 40.5000 -74.8667 44° Northeast 294 338 4,200 -1,020 Descending New York TRACON
12:59PM 40.5500 -74.8000 45° Northeast 288 331 4,000 -120 Descending New York TRACON
01:00PM 40.6000 -74.7167 52° Northeast 280 322 4,000  Level New York TRACON
01:01PM 40.6667 -74.6833 21° North 273 314 4,000  Level New York TRACON
01:02PM 40.7333 -74.6333 30° Northeast 281 323 4,000  Level New York TRACON
01:03PM 40.8000 -74.5833 30° Northeast 281 323 4,000  Level New York TRACON
01:04PM 40.8833 -74.5333 24° Northeast 283 326 4,000  Level New York TRACON
01:05PM 40.9500 -74.5000 21° North 285 328 4,000 -360 Level New York TRACON
01:06PM 41.0167 -74.4500 30° Northeast 281 323 3,300 -540 Descending New York TRACON
01:07PM 41.0500 -74.3667 62° Northeast 278 320 3,000 -180 Descending New York TRACON
01:08PM 41.0500 -74.2667 90° East 278 320 3,000 -300 Level New York TRACON
01:09PM 41.0500 -74.1833 90° East 249 287 2,500 -480 Descending New York TRACON
01:10PM 41.0333 -74.1000 105° East 215 247 2,100 -300 Descending New York TRACON
01:11PM 40.9833 -74.0500 143° Southeast 200 230 2,000 -240 Descending New York TRACON
01:12PM 40.9500 -74.0500 180° South 157 181 1,700 -540 Descending New York TRACON
01:13PM 40.9000 -74.0500 180° South 173 199 1,000 -720 Descending New York TRACON
01:14PM 40.8667 -74.0500 180° South 114 131 300 -720 Descending New York TRACON
01:16PM 40.8500 -74.0500 168° South  Level FlightAware Approximate
01:23PM 40.8501 -74.0608 168° South  Level Estimated